sensor_id;sensor_type;location;lat;lon;timestamp;P1;durP1;ratioP1;P2;durP2;ratioP2
17858;SDS011;35426;30.698;104.050;2023-11-19T00:02:07;211.27;;;97.07;;
17858;SDS011;35426;30.698;104.050;2023-11-19T00:04:42;215.23;;;94.67;;
17858;SDS011;35426;30.698;104.050;2023-11-19T00:07:17;203.37;;;96.27;;
17858;SDS011;35426;30.698;104.050;2023-11-19T00:10:02;203.37;;;90.23;;
17858;SDS011;35426;30.698;104.050;2023-11-19T00:12:42;213.67;;;95.47;;
17858;SDS011;35426;30.698;104.050;2023-11-19T00:15:21;196.77;;;91.17;;
17858;SDS011;35426;30.698;104.050;2023-11-19T00:17:55;195.33;;;89.93;;
17858;SDS011;35426;30.698;104.050;2023-11-19T00:20:37;191.67;;;91.13;;
17858;SDS011;35426;30.698;104.050;2023-11-19T00:23:14;185.00;;;87.73;;
17858;SDS011;35426;30.698;104.050;2023-11-19T00:25:48;198.17;;;90.93;;
17858;SDS011;35426;30.698;104.050;2023-11-19T00:28:25;193.07;;;91.20;;
17858;SDS011;35426;30.698;104.050;2023-11-19T00:31:04;190.63;;;90.87;;
17858;SDS011;35426;30.698;104.050;2023-11-19T00:33:40;198.07;;;90.83;;
17858;SDS011;35426;30.698;104.050;2023-11-19T00:36:20;186.93;;;88.07;;
17858;SDS011;35426;30.698;104.050;2023-11-19T00:38:58;186.97;;;87.47;;
17858;SDS011;35426;30.698;104.050;2023-11-19T00:41:32;186.63;;;87.20;;
17858;SDS011;35426;30.698;104.050;2023-11-19T00:44:09;188.00;;;84.00;;
17858;SDS011;35426;30.698;104.050;2023-11-19T00:46:43;191.83;;;85.17;;
17858;SDS011;35426;30.698;104.050;2023-11-19T00:49:18;203.67;;;85.90;;
17858;SDS011;35426;30.698;104.050;2023-11-19T00:51:52;185.70;;;86.37;;
17858;SDS011;35426;30.698;104.050;2023-11-19T00:54:29;187.80;;;86.03;;
17858;SDS011;35426;30.698;104.050;2023-11-19T00:57:05;177.33;;;82.93;;
17858;SDS011;35426;30.698;104.050;2023-11-19T00:59:43;182.33;;;89.80;;
17858;SDS011;35426;30.698;104.050;2023-11-19T01:02:17;193.53;;;90.60;;
17858;SDS011;35426;30.698;104.050;2023-11-19T01:04:52;194.70;;;90.23;;
17858;SDS011;35426;30.698;104.050;2023-11-19T01:07:27;184.70;;;89.47;;
17858;SDS011;35426;30.698;104.050;2023-11-19T01:10:03;192.57;;;91.87;;
17858;SDS011;35426;30.698;104.050;2023-11-19T01:12:39;185.80;;;87.97;;
17858;SDS011;35426;30.698;104.050;2023-11-19T01:15:16;192.30;;;90.27;;
17858;SDS011;35426;30.698;104.050;2023-11-19T01:17:52;183.80;;;88.93;;
17858;SDS011;35426;30.698;104.050;2023-11-19T01:20:26;181.10;;;88.10;;
17858;SDS011;35426;30.698;104.050;2023-11-19T01:23:02;182.87;;;91.93;;
17858;SDS011;35426;30.698;104.050;2023-11-19T01:25:37;189.97;;;93.80;;
17858;SDS011;35426;30.698;104.050;2023-11-19T01:28:13;197.97;;;93.07;;
17858;SDS011;35426;30.698;104.050;2023-11-19T01:30:50;203.43;;;93.57;;
17858;SDS011;35426;30.698;104.050;2023-11-19T01:33:24;182.63;;;90.53;;
17858;SDS011;35426;30.698;104.050;2023-11-19T01:35:58;195.07;;;93.67;;
17858;SDS011;35426;30.698;104.050;2023-11-19T01:38:34;185.70;;;94.00;;
17858;SDS011;35426;30.698;104.050;2023-11-19T01:41:09;201.03;;;96.17;;
17858;SDS011;35426;30.698;104.050;2023-11-19T01:43:42;206.67;;;96.20;;
17858;SDS011;35426;30.698;104.050;2023-11-19T01:46:18;190.07;;;94.23;;
17858;SDS011;35426;30.698;104.050;2023-11-19T01:48:54;197.37;;;94.17;;
17858;SDS011;35426;30.698;104.050;2023-11-19T01:51:28;188.03;;;95.53;;
17858;SDS011;35426;30.698;104.050;2023-11-19T01:54:04;194.60;;;97.30;;
17858;SDS011;35426;30.698;104.050;2023-11-19T01:56:39;192.57;;;97.37;;
17858;SDS011;35426;30.698;104.050;2023-11-19T01:59:14;185.07;;;96.50;;
17858;SDS011;35426;30.698;104.050;2023-11-19T02:01:58;203.50;;;99.03;;
17858;SDS011;35426;30.698;104.050;2023-11-19T02:04:34;199.27;;;100.63;;
17858;SDS011;35426;30.698;104.050;2023-11-19T02:07:11;206.37;;;101.23;;
17858;SDS011;35426;30.698;104.050;2023-11-19T02:09:47;190.50;;;100.00;;
17858;SDS011;35426;30.698;104.050;2023-11-19T02:12:22;201.93;;;103.03;;
17858;SDS011;35426;30.698;104.050;2023-11-19T02:14:58;196.83;;;99.40;;
17858;SDS011;35426;30.698;104.050;2023-11-19T02:17:35;202.87;;;99.03;;
17858;SDS011;35426;30.698;104.050;2023-11-19T02:20:09;195.90;;;103.83;;
17858;SDS011;35426;30.698;104.050;2023-11-19T02:22:44;198.77;;;103.50;;
17858;SDS011;35426;30.698;104.050;2023-11-19T02:25:22;198.17;;;104.00;;
17858;SDS011;35426;30.698;104.050;2023-11-19T02:28:05;209.57;;;103.00;;
17858;SDS011;35426;30.698;104.050;2023-11-19T02:30:41;204.83;;;103.73;;
17858;SDS011;35426;30.698;104.050;2023-11-19T02:33:15;210.33;;;103.93;;
17858;SDS011;35426;30.698;104.050;2023-11-19T02:35:49;208.00;;;102.17;;
17858;SDS011;35426;30.698;104.050;2023-11-19T02:38:23;205.83;;;102.30;;
17858;SDS011;35426;30.698;104.050;2023-11-19T02:40:57;202.37;;;103.97;;
17858;SDS011;35426;30.698;104.050;2023-11-19T02:43:35;204.57;;;103.83;;
17858;SDS011;35426;30.698;104.050;2023-11-19T02:46:09;197.83;;;102.53;;
17858;SDS011;35426;30.698;104.050;2023-11-19T02:48:43;204.13;;;102.80;;
17858;SDS011;35426;30.698;104.050;2023-11-19T02:51:18;202.90;;;105.97;;
17858;SDS011;35426;30.698;104.050;2023-11-19T02:53:52;223.27;;;103.90;;
17858;SDS011;35426;30.698;104.050;2023-11-19T02:56:26;194.77;;;100.47;;
17858;SDS011;35426;30.698;104.050;2023-11-19T02:59:07;180.10;;;95.60;;
17858;SDS011;35426;30.698;104.050;2023-11-19T03:01:48;188.37;;;97.63;;
17858;SDS011;35426;30.698;104.050;2023-11-19T03:04:22;193.43;;;96.30;;
17858;SDS011;35426;30.698;104.050;2023-11-19T03:06:56;202.60;;;99.10;;
17858;SDS011;35426;30.698;104.050;2023-11-19T03:09:30;207.67;;;99.13;;
17858;SDS011;35426;30.698;104.050;2023-11-19T03:12:05;192.27;;;101.13;;
17858;SDS011;35426;30.698;104.050;2023-11-19T03:14:48;203.53;;;99.53;;
17858;SDS011;35426;30.698;104.050;2023-11-19T03:17:22;197.93;;;98.13;;
17858;SDS011;35426;30.698;104.050;2023-11-19T03:19:56;197.70;;;96.80;;
17858;SDS011;35426;30.698;104.050;2023-11-19T03:22:33;194.20;;;98.47;;
17858;SDS011;35426;30.698;104.050;2023-11-19T03:25:07;184.53;;;95.03;;
17858;SDS011;35426;30.698;104.050;2023-11-19T03:27:42;180.60;;;95.63;;
17858;SDS011;35426;30.698;104.050;2023-11-19T03:30:19;197.83;;;95.17;;
17858;SDS011;35426;30.698;104.050;2023-11-19T03:33:01;180.10;;;91.30;;
17858;SDS011;35426;30.698;104.050;2023-11-19T03:35:37;188.60;;;92.40;;
17858;SDS011;35426;30.698;104.050;2023-11-19T03:38:12;185.07;;;93.87;;
17858;SDS011;35426;30.698;104.050;2023-11-19T03:40:47;189.23;;;86.63;;
17858;SDS011;35426;30.698;104.050;2023-11-19T03:43:21;183.60;;;89.37;;
17858;SDS011;35426;30.698;104.050;2023-11-19T03:45:58;163.60;;;85.80;;
17858;SDS011;35426;30.698;104.050;2023-11-19T03:48:36;187.50;;;89.07;;
17858;SDS011;35426;30.698;104.050;2023-11-19T03:51:10;171.30;;;88.87;;
17858;SDS011;35426;30.698;104.050;2023-11-19T03:53:46;178.83;;;86.83;;
17858;SDS011;35426;30.698;104.050;2023-11-19T03:56:24;166.23;;;84.03;;
17858;SDS011;35426;30.698;104.050;2023-11-19T03:58:58;167.60;;;81.90;;
17858;SDS011;35426;30.698;104.050;2023-11-19T04:01:34;159.70;;;78.63;;
17858;SDS011;35426;30.698;104.050;2023-11-19T04:04:09;160.13;;;76.63;;
17858;SDS011;35426;30.698;104.050;2023-11-19T04:06:44;157.27;;;76.30;;
17858;SDS011;35426;30.698;104.050;2023-11-19T04:09:19;161.67;;;77.77;;
17858;SDS011;35426;30.698;104.050;2023-11-19T04:11:53;151.07;;;72.63;;
17858;SDS011;35426;30.698;104.050;2023-11-19T04:14:27;140.43;;;67.67;;
17858;SDS011;35426;30.698;104.050;2023-11-19T04:17:03;142.30;;;68.73;;
17858;SDS011;35426;30.698;104.050;2023-11-19T04:19:38;151.80;;;71.90;;
17858;SDS011;35426;30.698;104.050;2023-11-19T04:22:14;159.27;;;73.87;;
17858;SDS011;35426;30.698;104.050;2023-11-19T04:24:48;154.90;;;73.93;;
17858;SDS011;35426;30.698;104.050;2023-11-19T04:27:23;154.77;;;72.97;;
17858;SDS011;35426;30.698;104.050;2023-11-19T04:29:57;150.53;;;71.97;;
17858;SDS011;35426;30.698;104.050;2023-11-19T04:32:35;145.37;;;69.93;;
17858;SDS011;35426;30.698;104.050;2023-11-19T04:35:09;144.87;;;70.00;;
17858;SDS011;35426;30.698;104.050;2023-11-19T04:37:45;145.93;;;67.03;;
17858;SDS011;35426;30.698;104.050;2023-11-19T04:40:19;136.77;;;64.97;;
17858;SDS011;35426;30.698;104.050;2023-11-19T04:42:54;138.73;;;64.80;;
17858;SDS011;35426;30.698;104.050;2023-11-19T04:45:28;130.97;;;61.73;;
17858;SDS011;35426;30.698;104.050;2023-11-19T04:48:07;130.00;;;60.57;;
17858;SDS011;35426;30.698;104.050;2023-11-19T04:50:42;146.30;;;60.93;;
17858;SDS011;35426;30.698;104.050;2023-11-19T04:53:17;135.17;;;63.37;;
17858;SDS011;35426;30.698;104.050;2023-11-19T04:55:52;125.77;;;62.50;;
17858;SDS011;35426;30.698;104.050;2023-11-19T04:58:26;144.00;;;64.07;;
17858;SDS011;35426;30.698;104.050;2023-11-19T05:01:04;135.70;;;65.60;;
17858;SDS011;35426;30.698;104.050;2023-11-19T05:03:40;132.87;;;61.57;;
17858;SDS011;35426;30.698;104.050;2023-11-19T05:06:16;131.73;;;60.70;;
17858;SDS011;35426;30.698;104.050;2023-11-19T05:08:49;133.53;;;60.33;;
17858;SDS011;35426;30.698;104.050;2023-11-19T05:11:23;142.67;;;62.00;;
17858;SDS011;35426;30.698;104.050;2023-11-19T05:13:57;131.77;;;61.07;;
17858;SDS011;35426;30.698;104.050;2023-11-19T05:16:33;126.77;;;59.73;;
17858;SDS011;35426;30.698;104.050;2023-11-19T05:19:09;141.10;;;59.43;;
17858;SDS011;35426;30.698;104.050;2023-11-19T05:21:43;131.73;;;59.00;;
17858;SDS011;35426;30.698;104.050;2023-11-19T05:24:19;128.50;;;59.30;;
17858;SDS011;35426;30.698;104.050;2023-11-19T05:26:53;123.07;;;59.13;;
17858;SDS011;35426;30.698;104.050;2023-11-19T05:29:27;132.30;;;61.10;;
17858;SDS011;35426;30.698;104.050;2023-11-19T05:32:02;136.63;;;62.27;;
17858;SDS011;35426;30.698;104.050;2023-11-19T05:34:39;130.90;;;58.23;;
17858;SDS011;35426;30.698;104.050;2023-11-19T05:37:16;130.27;;;58.00;;
17858;SDS011;35426;30.698;104.050;2023-11-19T05:39:52;121.17;;;57.10;;
17858;SDS011;35426;30.698;104.050;2023-11-19T05:42:26;125.03;;;62.20;;
17858;SDS011;35426;30.698;104.050;2023-11-19T05:45:00;146.30;;;67.93;;
17858;SDS011;35426;30.698;104.050;2023-11-19T05:47:35;143.80;;;66.37;;
17858;SDS011;35426;30.698;104.050;2023-11-19T05:50:11;148.00;;;65.70;;
17858;SDS011;35426;30.698;104.050;2023-11-19T05:52:46;136.53;;;65.40;;
17858;SDS011;35426;30.698;104.050;2023-11-19T05:55:22;131.90;;;62.53;;
17858;SDS011;35426;30.698;104.050;2023-11-19T05:57:57;129.70;;;61.70;;
17858;SDS011;35426;30.698;104.050;2023-11-19T06:00:31;138.67;;;62.30;;
17858;SDS011;35426;30.698;104.050;2023-11-19T06:03:08;136.53;;;63.50;;
17858;SDS011;35426;30.698;104.050;2023-11-19T06:05:47;147.80;;;67.93;;
17858;SDS011;35426;30.698;104.050;2023-11-19T06:08:22;150.77;;;68.33;;
17858;SDS011;35426;30.698;104.050;2023-11-19T06:10:57;151.30;;;70.20;;
17858;SDS011;35426;30.698;104.050;2023-11-19T06:13:31;148.50;;;69.83;;
17858;SDS011;35426;30.698;104.050;2023-11-19T06:16:09;157.37;;;70.33;;
17858;SDS011;35426;30.698;104.050;2023-11-19T06:18:44;146.53;;;68.90;;
17858;SDS011;35426;30.698;104.050;2023-11-19T06:21:22;156.13;;;73.27;;
17858;SDS011;35426;30.698;104.050;2023-11-19T06:23:56;158.10;;;74.70;;
17858;SDS011;35426;30.698;104.050;2023-11-19T06:26:30;137.43;;;72.07;;
17858;SDS011;35426;30.698;104.050;2023-11-19T06:29:05;143.13;;;70.37;;
17858;SDS011;35426;30.698;104.050;2023-11-19T06:31:40;140.57;;;68.77;;
17858;SDS011;35426;30.698;104.050;2023-11-19T06:34:15;151.23;;;69.50;;
17858;SDS011;35426;30.698;104.050;2023-11-19T06:36:54;150.63;;;69.60;;
17858;SDS011;35426;30.698;104.050;2023-11-19T06:39:30;145.50;;;67.70;;
17858;SDS011;35426;30.698;104.050;2023-11-19T06:42:05;141.83;;;66.50;;
17858;SDS011;35426;30.698;104.050;2023-11-19T06:44:39;141.30;;;65.80;;
17858;SDS011;35426;30.698;104.050;2023-11-19T06:47:14;138.60;;;65.80;;
17858;SDS011;35426;30.698;104.050;2023-11-19T06:49:48;154.03;;;70.20;;
17858;SDS011;35426;30.698;104.050;2023-11-19T06:52:24;152.40;;;69.50;;
17858;SDS011;35426;30.698;104.050;2023-11-19T06:54:58;154.53;;;71.13;;
17858;SDS011;35426;30.698;104.050;2023-11-19T06:57:36;152.20;;;75.90;;
17858;SDS011;35426;30.698;104.050;2023-11-19T07:00:10;150.10;;;69.57;;
17858;SDS011;35426;30.698;104.050;2023-11-19T07:02:45;145.97;;;67.93;;
17858;SDS011;35426;30.698;104.050;2023-11-19T07:05:19;139.57;;;66.20;;
17858;SDS011;35426;30.698;104.050;2023-11-19T07:07:55;143.90;;;68.27;;
17858;SDS011;35426;30.698;104.050;2023-11-19T07:10:29;140.03;;;66.83;;
17858;SDS011;35426;30.698;104.050;2023-11-19T07:13:04;145.27;;;65.80;;
17858;SDS011;35426;30.698;104.050;2023-11-19T07:15:38;143.27;;;67.03;;
17858;SDS011;35426;30.698;104.050;2023-11-19T07:18:12;141.70;;;68.33;;
17858;SDS011;35426;30.698;104.050;2023-11-19T07:20:46;150.33;;;68.77;;
17858;SDS011;35426;30.698;104.050;2023-11-19T07:23:23;151.60;;;68.23;;
17858;SDS011;35426;30.698;104.050;2023-11-19T07:25:59;145.03;;;67.97;;
17858;SDS011;35426;30.698;104.050;2023-11-19T07:28:32;154.77;;;68.40;;
17858;SDS011;35426;30.698;104.050;2023-11-19T07:31:08;154.40;;;68.53;;
17858;SDS011;35426;30.698;104.050;2023-11-19T07:33:42;152.87;;;70.13;;
17858;SDS011;35426;30.698;104.050;2023-11-19T07:36:17;152.67;;;64.00;;
17858;SDS011;35426;30.698;104.050;2023-11-19T07:38:53;129.70;;;63.80;;
17858;SDS011;35426;30.698;104.050;2023-11-19T07:41:28;146.70;;;64.60;;
17858;SDS011;35426;30.698;104.050;2023-11-19T07:44:05;146.00;;;64.57;;
17858;SDS011;35426;30.698;104.050;2023-11-19T07:46:40;135.93;;;65.93;;
17858;SDS011;35426;30.698;104.050;2023-11-19T07:49:14;130.07;;;63.13;;
17858;SDS011;35426;30.698;104.050;2023-11-19T07:51:48;134.40;;;60.97;;
17858;SDS011;35426;30.698;104.050;2023-11-19T07:54:24;139.50;;;58.37;;
17858;SDS011;35426;30.698;104.050;2023-11-19T07:57:00;123.23;;;59.87;;
17858;SDS011;35426;30.698;104.050;2023-11-19T07:59:33;123.40;;;57.20;;
17858;SDS011;35426;30.698;104.050;2023-11-19T08:02:07;133.97;;;57.20;;
17858;SDS011;35426;30.698;104.050;2023-11-19T08:04:41;120.23;;;56.90;;
17858;SDS011;35426;30.698;104.050;2023-11-19T08:07:15;131.40;;;58.00;;
17858;SDS011;35426;30.698;104.050;2023-11-19T08:09:51;134.33;;;58.43;;
17858;SDS011;35426;30.698;104.050;2023-11-19T08:12:27;125.43;;;56.17;;
17858;SDS011;35426;30.698;104.050;2023-11-19T08:15:01;127.10;;;59.83;;
17858;SDS011;35426;30.698;104.050;2023-11-19T08:17:36;127.27;;;56.73;;
17858;SDS011;35426;30.698;104.050;2023-11-19T08:20:10;125.70;;;55.60;;
17858;SDS011;35426;30.698;104.050;2023-11-19T08:22:46;125.77;;;58.27;;
17858;SDS011;35426;30.698;104.050;2023-11-19T08:25:22;134.63;;;57.37;;
17858;SDS011;35426;30.698;104.050;2023-11-19T08:27:57;133.00;;;57.30;;
17858;SDS011;35426;30.698;104.050;2023-11-19T08:30:33;133.50;;;57.27;;
17858;SDS011;35426;30.698;104.050;2023-11-19T08:33:08;125.10;;;57.20;;
17858;SDS011;35426;30.698;104.050;2023-11-19T08:35:43;131.80;;;57.77;;
17858;SDS011;35426;30.698;104.050;2023-11-19T08:38:17;142.53;;;56.93;;
17858;SDS011;35426;30.698;104.050;2023-11-19T08:40:59;120.40;;;54.63;;
17858;SDS011;35426;30.698;104.050;2023-11-19T08:43:33;133.90;;;54.70;;
17858;SDS011;35426;30.698;104.050;2023-11-19T08:46:09;124.07;;;55.03;;
17858;SDS011;35426;30.698;104.050;2023-11-19T08:48:43;123.13;;;54.43;;
17858;SDS011;35426;30.698;104.050;2023-11-19T08:51:17;118.57;;;53.50;;
17858;SDS011;35426;30.698;104.050;2023-11-19T08:53:51;121.07;;;54.10;;
17858;SDS011;35426;30.698;104.050;2023-11-19T08:56:29;126.97;;;53.40;;
17858;SDS011;35426;30.698;104.050;2023-11-19T08:59:04;123.90;;;54.50;;
17858;SDS011;35426;30.698;104.050;2023-11-19T09:01:38;125.93;;;55.50;;
17858;SDS011;35426;30.698;104.050;2023-11-19T09:04:12;126.67;;;55.00;;
17858;SDS011;35426;30.698;104.050;2023-11-19T09:06:46;118.60;;;55.03;;
17858;SDS011;35426;30.698;104.050;2023-11-19T09:09:20;126.97;;;54.97;;
17858;SDS011;35426;30.698;104.050;2023-11-19T09:11:56;125.00;;;55.10;;
17858;SDS011;35426;30.698;104.050;2023-11-19T09:14:30;135.80;;;54.87;;
17858;SDS011;35426;30.698;104.050;2023-11-19T09:17:04;129.80;;;54.93;;
17858;SDS011;35426;30.698;104.050;2023-11-19T09:19:39;122.50;;;54.10;;
17858;SDS011;35426;30.698;104.050;2023-11-19T09:22:13;129.20;;;55.13;;
17858;SDS011;35426;30.698;104.050;2023-11-19T09:24:47;125.90;;;55.53;;
17858;SDS011;35426;30.698;104.050;2023-11-19T09:27:23;119.50;;;56.03;;
17858;SDS011;35426;30.698;104.050;2023-11-19T09:29:57;126.63;;;54.50;;
17858;SDS011;35426;30.698;104.050;2023-11-19T09:32:33;124.77;;;54.40;;
17858;SDS011;35426;30.698;104.050;2023-11-19T09:35:08;123.30;;;54.97;;
17858;SDS011;35426;30.698;104.050;2023-11-19T09:37:44;135.40;;;54.17;;
17858;SDS011;35426;30.698;104.050;2023-11-19T09:40:19;136.73;;;56.83;;
17858;SDS011;35426;30.698;104.050;2023-11-19T09:42:57;128.97;;;55.70;;
17858;SDS011;35426;30.698;104.050;2023-11-19T09:45:31;120.20;;;54.20;;
17858;SDS011;35426;30.698;104.050;2023-11-19T09:48:11;125.73;;;57.60;;
17858;SDS011;35426;30.698;104.050;2023-11-19T09:50:47;126.60;;;55.37;;
17858;SDS011;35426;30.698;104.050;2023-11-19T09:53:22;122.57;;;56.13;;
17858;SDS011;35426;30.698;104.050;2023-11-19T09:55:59;132.27;;;57.50;;
17858;SDS011;35426;30.698;104.050;2023-11-19T09:58:36;122.40;;;56.77;;
17858;SDS011;35426;30.698;104.050;2023-11-19T10:01:11;142.03;;;59.13;;
17858;SDS011;35426;30.698;104.050;2023-11-19T10:03:55;122.17;;;57.30;;
17858;SDS011;35426;30.698;104.050;2023-11-19T10:06:30;145.50;;;58.93;;
17858;SDS011;35426;30.698;104.050;2023-11-19T10:09:04;138.63;;;58.77;;
17858;SDS011;35426;30.698;104.050;2023-11-19T10:11:39;142.73;;;57.90;;
17858;SDS011;35426;30.698;104.050;2023-11-19T10:14:15;145.13;;;62.87;;
17858;SDS011;35426;30.698;104.050;2023-11-19T10:16:52;150.90;;;66.63;;
17858;SDS011;35426;30.698;104.050;2023-11-19T10:19:28;155.20;;;68.63;;
17858;SDS011;35426;30.698;104.050;2023-11-19T10:22:06;157.33;;;72.60;;
17858;SDS011;35426;30.698;104.050;2023-11-19T10:24:40;164.17;;;71.23;;
17858;SDS011;35426;30.698;104.050;2023-11-19T10:27:21;156.93;;;69.33;;
17858;SDS011;35426;30.698;104.050;2023-11-19T10:30:02;173.77;;;71.70;;
17858;SDS011;35426;30.698;104.050;2023-11-19T10:32:38;172.10;;;72.70;;
17858;SDS011;35426;30.698;104.050;2023-11-19T10:35:13;173.03;;;71.20;;
17858;SDS011;35426;30.698;104.050;2023-11-19T10:37:47;169.60;;;73.13;;
17858;SDS011;35426;30.698;104.050;2023-11-19T10:40:21;163.30;;;73.17;;
17858;SDS011;35426;30.698;104.050;2023-11-19T10:43:02;157.63;;;72.03;;
17858;SDS011;35426;30.698;104.050;2023-11-19T10:45:39;156.73;;;71.33;;
17858;SDS011;35426;30.698;104.050;2023-11-19T10:48:14;168.73;;;72.80;;
17858;SDS011;35426;30.698;104.050;2023-11-19T10:50:50;160.47;;;71.40;;
17858;SDS011;35426;30.698;104.050;2023-11-19T10:53:28;169.53;;;72.03;;
17858;SDS011;35426;30.698;104.050;2023-11-19T10:56:05;157.77;;;68.60;;
17858;SDS011;35426;30.698;104.050;2023-11-19T10:58:45;172.97;;;72.33;;
17858;SDS011;35426;30.698;104.050;2023-11-19T11:01:27;154.40;;;68.70;;
17858;SDS011;35426;30.698;104.050;2023-11-19T11:04:12;165.63;;;69.27;;
17858;SDS011;35426;30.698;104.050;2023-11-19T11:06:51;163.10;;;68.63;;
17858;SDS011;35426;30.698;104.050;2023-11-19T11:09:29;146.63;;;66.70;;
17858;SDS011;35426;30.698;104.050;2023-11-19T11:12:04;160.83;;;71.17;;
17858;SDS011;35426;30.698;104.050;2023-11-19T11:14:42;167.03;;;69.33;;
17858;SDS011;35426;30.698;104.050;2023-11-19T11:17:20;156.70;;;66.50;;
17858;SDS011;35426;30.698;104.050;2023-11-19T11:20:01;147.73;;;65.60;;
17858;SDS011;35426;30.698;104.050;2023-11-19T11:22:38;149.80;;;67.10;;
17858;SDS011;35426;30.698;104.050;2023-11-19T11:25:25;151.07;;;66.37;;
17858;SDS011;35426;30.698;104.050;2023-11-19T11:28:11;161.70;;;65.50;;
17858;SDS011;35426;30.698;104.050;2023-11-19T11:30:59;153.03;;;64.37;;
17858;SDS011;35426;30.698;104.050;2023-11-19T11:33:45;151.73;;;64.70;;
17858;SDS011;35426;30.698;104.050;2023-11-19T11:36:48;162.97;;;65.53;;
17858;SDS011;35426;30.698;104.050;2023-11-19T11:39:26;150.20;;;68.00;;
17858;SDS011;35426;30.698;104.050;2023-11-19T11:45:13;161.43;;;67.47;;
17858;SDS011;35426;30.698;104.050;2023-11-19T11:48:08;156.10;;;67.00;;
17858;SDS011;35426;30.698;104.050;2023-11-19T11:50:49;173.30;;;68.20;;
17858;SDS011;35426;30.698;104.050;2023-11-19T11:53:25;163.53;;;70.27;;
17858;SDS011;35426;30.698;104.050;2023-11-19T11:56:02;159.47;;;69.50;;
17858;SDS011;35426;30.698;104.050;2023-11-19T11:58:37;149.10;;;65.57;;
17858;SDS011;35426;30.698;104.050;2023-11-19T12:01:14;146.60;;;68.53;;
17858;SDS011;35426;30.698;104.050;2023-11-19T12:03:50;151.90;;;68.23;;
17858;SDS011;35426;30.698;104.050;2023-11-19T12:06:28;159.33;;;68.90;;
17858;SDS011;35426;30.698;104.050;2023-11-19T12:09:05;170.97;;;66.40;;
17858;SDS011;35426;30.698;104.050;2023-11-19T12:11:47;158.83;;;69.13;;
17858;SDS011;35426;30.698;104.050;2023-11-19T12:20:28;157.70;;;68.57;;
17858;SDS011;35426;30.698;104.050;2023-11-19T12:23:12;163.70;;;69.13;;
17858;SDS011;35426;30.698;104.050;2023-11-19T12:25:48;157.43;;;70.40;;
17858;SDS011;35426;30.698;104.050;2023-11-19T12:28:23;150.00;;;68.23;;
17858;SDS011;35426;30.698;104.050;2023-11-19T12:31:07;159.50;;;65.80;;
17858;SDS011;35426;30.698;104.050;2023-11-19T12:33:42;153.07;;;66.53;;
17858;SDS011;35426;30.698;104.050;2023-11-19T12:36:17;155.60;;;67.43;;
17858;SDS011;35426;30.698;104.050;2023-11-19T12:38:55;151.80;;;69.53;;
17858;SDS011;35426;30.698;104.050;2023-11-19T12:41:30;159.83;;;67.20;;
17858;SDS011;35426;30.698;104.050;2023-11-19T12:44:11;162.60;;;66.57;;
17858;SDS011;35426;30.698;104.050;2023-11-19T12:46:46;157.93;;;68.60;;
17858;SDS011;35426;30.698;104.050;2023-11-19T12:49:33;161.33;;;66.10;;
17858;SDS011;35426;30.698;104.050;2023-11-19T12:52:13;160.00;;;68.07;;
17858;SDS011;35426;30.698;104.050;2023-11-19T12:54:50;166.77;;;70.13;;
17858;SDS011;35426;30.698;104.050;2023-11-19T12:57:35;160.37;;;68.63;;
17858;SDS011;35426;30.698;104.050;2023-11-19T13:00:18;159.03;;;69.23;;
17858;SDS011;35426;30.698;104.050;2023-11-19T13:02:53;151.80;;;67.03;;
17858;SDS011;35426;30.698;104.050;2023-11-19T13:05:28;147.87;;;68.93;;
17858;SDS011;35426;30.698;104.050;2023-11-19T13:08:03;147.27;;;67.97;;
17858;SDS011;35426;30.698;104.050;2023-11-19T13:10:51;161.20;;;67.20;;
17858;SDS011;35426;30.698;104.050;2023-11-19T13:13:26;155.63;;;68.90;;
17858;SDS011;35426;30.698;104.050;2023-11-19T13:16:03;157.67;;;68.67;;
17858;SDS011;35426;30.698;104.050;2023-11-19T13:18:39;169.13;;;68.87;;
17858;SDS011;35426;30.698;104.050;2023-11-19T13:21:13;153.07;;;69.90;;
17858;SDS011;35426;30.698;104.050;2023-11-19T13:23:47;152.87;;;67.20;;
17858;SDS011;35426;30.698;104.050;2023-11-19T13:26:24;150.97;;;66.53;;
17858;SDS011;35426;30.698;104.050;2023-11-19T13:28:58;149.63;;;67.90;;
17858;SDS011;35426;30.698;104.050;2023-11-19T13:31:33;161.40;;;68.73;;
17858;SDS011;35426;30.698;104.050;2023-11-19T13:34:07;153.07;;;65.37;;
17858;SDS011;35426;30.698;104.050;2023-11-19T13:36:42;146.97;;;66.07;;
17858;SDS011;35426;30.698;104.050;2023-11-19T13:39:16;147.83;;;65.67;;
17858;SDS011;35426;30.698;104.050;2023-11-19T13:41:55;151.10;;;67.47;;
17858;SDS011;35426;30.698;104.050;2023-11-19T13:44:33;149.70;;;68.37;;
17858;SDS011;35426;30.698;104.050;2023-11-19T13:47:09;161.17;;;68.90;;
17858;SDS011;35426;30.698;104.050;2023-11-19T13:49:44;160.57;;;68.37;;
17858;SDS011;35426;30.698;104.050;2023-11-19T13:52:20;159.43;;;69.53;;
17858;SDS011;35426;30.698;104.050;2023-11-19T13:54:54;144.93;;;67.10;;
17858;SDS011;35426;30.698;104.050;2023-11-19T13:57:32;161.63;;;67.40;;
17858;SDS011;35426;30.698;104.050;2023-11-19T14:00:07;156.00;;;68.17;;
17858;SDS011;35426;30.698;104.050;2023-11-19T14:02:42;154.40;;;68.13;;
17858;SDS011;35426;30.698;104.050;2023-11-19T14:05:17;155.70;;;68.90;;
17858;SDS011;35426;30.698;104.050;2023-11-19T14:07:56;158.67;;;71.00;;
17858;SDS011;35426;30.698;104.050;2023-11-19T14:10:37;150.73;;;69.00;;
17858;SDS011;35426;30.698;104.050;2023-11-19T14:13:16;157.60;;;68.90;;
17858;SDS011;35426;30.698;104.050;2023-11-19T14:15:50;155.30;;;67.90;;
17858;SDS011;35426;30.698;104.050;2023-11-19T14:18:25;155.83;;;68.33;;
17858;SDS011;35426;30.698;104.050;2023-11-19T14:20:59;157.00;;;70.43;;
17858;SDS011;35426;30.698;104.050;2023-11-19T14:23:33;162.50;;;71.70;;
17858;SDS011;35426;30.698;104.050;2023-11-19T14:26:08;153.17;;;67.40;;
17858;SDS011;35426;30.698;104.050;2023-11-19T14:28:47;156.83;;;69.87;;
17858;SDS011;35426;30.698;104.050;2023-11-19T14:31:23;171.13;;;71.27;;
17858;SDS011;35426;30.698;104.050;2023-11-19T14:34:02;164.53;;;70.63;;
17858;SDS011;35426;30.698;104.050;2023-11-19T14:36:39;154.83;;;70.23;;
17858;SDS011;35426;30.698;104.050;2023-11-19T14:39:13;149.13;;;69.23;;
17858;SDS011;35426;30.698;104.050;2023-11-19T14:41:51;158.53;;;70.90;;
17858;SDS011;35426;30.698;104.050;2023-11-19T14:44:31;162.83;;;69.27;;